Time;durP1;ratioP1;P1;durP2;ratioP2;P2;SDS_P1;SDS_P2;PMS_P1;PMS_P2;Temp;Humidity;BMP_temperature;BMP_pressure;BME280_temperature;BME280_humidity;BME280_pressure;Samples;Min_cycle;Max_cycle;Signal;HPM_P1;HPM_P2
2024/02/15 00:00:11;;;;;;;14.73;8.57;;;;;;;9.75;66.09;99198.91;5072485;28;20429;-47
2024/02/15 00:02:37;;;;;;;13.40;9.80;;;;;;;9.76;66.05;99197.13;5072556;28;20086;-47
2024/02/15 00:05:02;;;;;;;14.10;10.05;;;;;;;9.76;66.06;99199.75;5074037;28;20024;-47
2024/02/15 00:07:28;;;;;;;16.05;9.48;;;;;;;9.72;65.82;99198.47;5073815;28;20105;-47
2024/02/15 00:09:54;;;;;;;14.43;9.90;;;;;;;9.69;66.43;99197.00;5072399;28;20083;-47
2024/02/15 00:12:20;;;;;;;14.40;8.77;;;;;;;9.74;66.37;99201.72;5073921;28;20028;-47
2024/02/15 00:14:46;;;;;;;14.32;9.70;;;;;;;9.76;65.96;99197.13;5073637;28;20021;-47
2024/02/15 00:17:11;;;;;;;14.85;9.35;;;;;;;9.78;66.05;99198.56;5072254;28;20032;-47
2024/02/15 00:19:39;;;;;;;14.35;8.13;;;;;;;10.06;65.57;99200.50;5073239;28;20044;-46
2024/02/15 00:22:05;;;;;;;11.50;7.90;;;;;;;10.09;64.41;99205.38;5073464;28;20111;-47
2024/02/15 00:24:31;;;;;;;11.25;7.30;;;;;;;9.94;64.50;99204.56;5073449;28;20487;-46
2024/02/15 00:26:57;;;;;;;12.82;7.60;;;;;;;9.66;64.63;99200.00;5055445;28;20508;-47
2024/02/15 00:29:24;;;;;;;13.40;8.30;;;;;;;9.44;65.64;99198.28;5071212;28;20123;-46
2024/02/15 00:31:50;;;;;;;11.15;8.57;;;;;;;9.34;66.24;99195.94;5073496;28;20040;-47
2024/02/15 00:34:16;;;;;;;13.25;8.20;;;;;;;9.26;66.78;99196.84;5071954;28;20444;-46
2024/02/15 00:36:44;;;;;;;12.75;8.15;;;;;;;9.31;66.88;99191.84;5071883;28;20393;-47
2024/02/15 00:39:11;;;;;;;13.75;8.32;;;;;;;9.46;66.77;99191.88;5073312;28;20036;-47
2024/02/15 00:41:41;;;;;;;14.80;8.60;;;;;;;9.59;66.83;99186.81;5072143;28;20052;-47
2024/02/15 00:44:12;;;;;;;13.15;8.13;;;;;;;9.58;65.94;99187.81;5071840;28;20111;-47
2024/02/15 00:46:38;;;;;;;12.43;7.53;;;;;;;9.55;66.12;99179.50;5073237;28;20375;-47
2024/02/15 00:49:07;;;;;;;10.82;7.93;;;;;;;9.53;66.09;99187.53;5071622;28;20024;-46
2024/02/15 00:51:33;;;;;;;12.30;7.50;;;;;;;9.48;65.81;99184.66;5071897;28;20036;-47
2024/02/15 00:54:01;;;;;;;11.10;7.28;;;;;;;9.49;65.95;99181.03;5072732;28;20039;-46
2024/02/15 00:56:27;;;;;;;14.05;7.28;;;;;;;9.48;65.96;99168.13;5072748;28;20028;-46
2024/02/15 00:58:53;;;;;;;9.77;6.70;;;;;;;9.53;66.17;99171.00;5072611;28;20432;-47
2024/02/15 01:01:19;;;;;;;12.02;6.90;;;;;;;9.60;66.21;99170.09;5072695;28;20024;-47
2024/02/15 01:03:45;;;;;;;10.65;7.05;;;;;;;9.71;65.64;99170.63;5072661;28;20506;-46
2024/02/15 01:06:11;;;;;;;13.15;6.80;;;;;;;9.64;65.15;99172.34;5072827;28;20017;-47
2024/02/15 01:08:37;;;;;;;9.55;6.35;;;;;;;9.68;65.48;99157.88;5071285;28;20447;-47
2024/02/15 01:11:04;;;;;;;14.20;7.43;;;;;;;9.74;65.21;99163.22;5071139;28;20174;-47
2024/02/15 01:13:29;;;;;;;9.68;6.43;;;;;;;9.76;64.73;99157.81;5072670;28;20081;-48
2024/02/15 01:15:55;;;;;;;11.45;6.43;;;;;;;9.78;64.63;99154.00;5071345;28;20115;-47
2024/02/15 01:18:21;;;;;;;10.27;6.65;;;;;;;9.78;64.39;99151.38;5072059;28;20040;-47
2024/02/15 01:20:47;;;;;;;10.98;6.47;;;;;;;9.85;64.77;99158.50;5072323;28;20033;-47
2024/02/15 01:23:13;;;;;;;12.73;7.10;;;;;;;10.19;66.12;99157.88;5072380;28;20025;-47
2024/02/15 01:25:39;;;;;;;1037.53;58.15;;;;;;;10.54;68.54;99148.38;5070940;28;20383;-47
2024/02/15 01:28:06;;;;;;;10.07;5.57;;;;;;;10.68;65.03;99158.97;5072280;28;20024;-47
2024/02/15 01:30:32;;;;;;;8.27;4.95;;;;;;;10.68;63.47;99164.22;5072244;28;20494;-47
2024/02/15 01:32:58;;;;;;;12.07;6.07;;;;;;;10.65;62.28;99162.78;5072172;28;20032;-47
2024/02/15 01:35:27;;;;;;;8.80;5.60;;;;;;;10.74;62.25;99158.19;5070800;28;20524;-47
2024/02/15 01:37:53;;;;;;;8.25;5.40;;;;;;;10.72;62.13;99170.69;5072090;28;20081;-47
2024/02/15 01:40:18;;;;;;;10.75;6.20;;;;;;;10.64;61.93;99169.00;5071704;28;20475;-46
2024/02/15 01:42:45;;;;;;;11.75;6.57;;;;;;;10.58;61.97;99167.97;5072029;28;20024;-47
2024/02/15 01:45:11;;;;;;;11.93;7.00;;;;;;;10.46;61.87;99177.31;5070717;28;20029;-47
2024/02/15 01:47:40;;;;;;;10.48;7.25;;;;;;;10.42;62.19;99172.66;5071897;28;20016;-47
2024/02/15 01:50:07;;;;;;;12.48;7.75;;;;;;;10.36;62.57;99171.56;5070602;28;20029;-47
2024/02/15 01:52:34;;;;;;;11.18;6.25;;;;;;;10.29;62.66;99175.94;5071907;28;20052;-47
2024/02/15 01:55:07;;;;;;;12.65;7.50;;;;;;;10.20;62.48;99169.97;5070558;28;20247;-47
2024/02/15 01:57:40;;;;;;;12.38;7.63;;;;;;;10.15;62.72;99165.28;5070652;28;20039;-46
2024/02/15 02:00:08;;;;;;;25.08;20.05;;;;;;;10.07;62.65;99172.47;5070448;28;20029;-47
2024/02/15 02:02:39;;;;;;;12.30;8.82;;;;;;;9.91;62.98;99163.81;5071752;28;20056;-47
2024/02/15 02:05:05;;;;;;;11.55;7.00;;;;;;;9.91;63.28;99155.13;5071722;28;20017;-47
2024/02/15 02:07:32;;;;;;;16.40;14.73;;;;;;;9.98;63.36;99158.66;5071761;28;20537;-46
2024/02/15 02:09:57;;;;;;;11.45;8.98;;;;;;;9.82;63.04;99161.47;5071687;28;20028;-47
2024/02/15 02:12:27;;;;;;;10.80;5.63;;;;;;;9.64;63.57;99160.06;5071723;28;20587;-46
2024/02/15 02:14:54;;;;;;;8.65;5.28;;;;;;;9.62;63.46;99154.19;5071858;28;20439;-46
2024/02/15 02:17:21;;;;;;;6.65;4.78;;;;;;;9.61;63.83;99142.06;5071681;28;20398;-47
2024/02/15 02:19:49;;;;;;;10.07;6.10;;;;;;;9.60;63.99;99150.94;5071313;28;20044;-47
2024/02/15 02:22:17;;;;;;;6.82;5.07;;;;;;;9.58;64.05;99158.19;5071561;28;20028;-46
2024/02/15 02:25:03;;;;;;;9.02;4.57;;;;;;;9.70;64.07;99154.09;5071519;28;20028;-46
2024/02/15 02:27:32;;;;;;;8.93;4.97;;;;;;;9.85;63.99;99143.56;5071596;28;20073;-47
2024/02/15 02:29:59;;;;;;;6.97;4.75;;;;;;;10.04;63.67;99147.44;5071558;28;20040;-46
2024/02/15 02:32:27;;;;;;;7.63;5.38;;;;;;;10.19;63.64;99153.44;5070202;28;20409;-47
2024/02/15 02:34:57;;;;;;;10.30;5.50;;;;;;;10.15;63.08;99149.56;5070158;28;20127;-47
2024/02/15 02:37:25;;;;;;;10.38;7.18;;;;;;;10.20;63.47;99152.44;5071465;28;20149;-47
2024/02/15 02:39:51;;;;;;;8.00;4.95;;;;;;;10.29;63.38;99160.19;5070065;28;20062;-46
2024/02/15 02:42:17;;;;;;;9.05;5.20;;;;;;;10.33;63.13;99159.66;5071372;28;20052;-47
2024/02/15 02:44:44;;;;;;;7.95;5.38;;;;;;;10.46;62.77;99153.72;5071377;28;20093;-47
2024/02/15 02:47:10;;;;;;;13.02;5.43;;;;;;;10.40;62.83;99149.22;5071332;28;20396;-47
2024/02/15 02:49:36;;;;;;;12.20;6.68;;;;;;;10.43;62.93;99146.22;5071298;28;20025;-47
2024/02/15 02:52:03;;;;;;;10.73;7.25;;;;;;;10.52;63.22;99152.16;5070899;28;20137;-47
2024/02/15 02:54:29;;;;;;;11.95;6.78;;;;;;;10.50;62.62;99152.38;5073851;28;20036;-47
2024/02/15 02:56:55;;;;;;;13.20;5.85;;;;;;;10.47;62.76;99144.84;5073784;28;20170;-47
2024/02/15 02:59:21;;;;;;;8.00;5.50;;;;;;;10.41;62.65;99142.97;5073648;28;20085;-46
2024/02/15 03:01:47;;;;;;;10.80;5.13;;;;;;;10.41;62.69;99137.72;5073700;28;20036;-46
2024/02/15 03:04:18;;;;;;;9.25;5.10;;;;;;;10.44;62.99;99145.22;5074940;28;20031;-46
2024/02/15 03:06:44;;;;;;;9.20;5.57;;;;;;;10.64;63.76;99140.16;5073627;28;20029;-46
2024/02/15 03:09:14;;;;;;;9.85;6.25;;;;;;;10.90;63.31;99128.22;5074843;28;20237;-46
2024/02/15 03:11:39;;;;;;;11.25;5.68;;;;;;;11.13;62.56;99122.75;5074809;28;20089;-47
2024/02/15 03:14:05;;;;;;;8.52;5.80;;;;;;;11.34;63.75;99124.47;5074739;28;20490;-46
2024/02/15 03:16:34;;;;;;;10.55;5.00;;;;;;;11.60;63.67;99118.50;5073384;28;20486;-47
2024/02/15 03:19:03;;;;;;;8.68;5.70;;;;;;;12.01;64.45;99107.13;5074287;28;20044;-47
2024/02/15 03:21:29;;;;;;;8.95;5.13;;;;;;;12.42;62.90;99108.84;5073317;28;20033;-47
2024/02/15 03:23:54;;;;;;;9.40;5.30;;;;;;;12.65;62.23;99103.16;5073241;28;20032;-47
2024/02/15 03:26:36;;;;;;;14.63;5.32;;;;;;;12.75;60.96;99098.28;5073504;28;20043;-47
2024/02/15 03:29:03;;;;;;;9.77;5.88;;;;;;;12.75;60.47;99095.66;5074541;28;20081;-47
2024/02/15 03:31:30;;;;;;;8.55;6.05;;;;;;;12.88;61.06;99091.41;5074744;28;20021;-47
2024/02/15 03:33:58;;;;;;;7.90;4.88;;;;;;;12.99;60.75;99078.38;5073135;28;20025;-47
2024/02/15 03:36:24;;;;;;;9.43;6.05;;;;;;;13.11;60.26;99078.56;5074309;28;20052;-47
2024/02/15 03:38:53;;;;;;;9.68;5.68;;;;;;;13.12;59.74;99084.63;5074361;28;20154;-46
2024/02/15 03:41:20;;;;;;;7.43;5.47;;;;;;;13.11;59.96;99073.28;5074111;28;20032;-47
2024/02/15 03:43:46;;;;;;;12.13;5.72;;;;;;;13.09;60.21;99075.31;5072935;28;20083;-47
2024/02/15 03:46:12;;;;;;;8.43;6.03;;;;;;;13.03;60.25;99067.44;5074101;28;20100;-47
2024/02/15 03:48:39;;;;;;;21.88;6.93;;;;;;;13.07;60.77;99069.44;5056221;28;20115;-47
2024/02/15 03:51:06;;;;;;;9.20;5.47;;;;;;;13.14;60.24;99072.09;5072706;28;20028;-47
2024/02/15 03:53:33;;;;;;;12.13;7.03;;;;;;;13.12;60.75;99068.81;5073994;28;20023;-47
2024/02/15 03:56:00;;;;;;;10.63;6.20;;;;;;;13.18;61.21;99060.13;5073904;28;20016;-47
2024/02/15 03:58:26;;;;;;;11.35;5.45;;;;;;;13.25;59.62;99071.44;5073954;28;20415;-47
2024/02/15 04:00:52;;;;;;;12.85;5.47;;;;;;;13.16;59.48;99070.06;5073848;28;20019;-47
2024/02/15 04:03:17;;;;;;;10.20;6.05;;;;;;;13.21;61.26;99069.44;5072446;28;20024;-47
2024/02/15 04:05:43;;;;;;;10.23;6.10;;;;;;;13.39;60.74;99061.69;5072511;28;20021;-47
2024/02/15 04:08:10;;;;;;;9.75;5.72;;;;;;;13.50;61.67;99061.03;5073794;28;20398;-47
2024/02/15 04:10:36;;;;;;;8.10;6.00;;;;;;;13.69;60.84;99053.22;5072387;28;20021;-47
2024/02/15 04:13:02;;;;;;;10.98;5.78;;;;;;;13.91;59.90;99048.44;5072371;28;20016;-47
2024/02/15 04:15:27;;;;;;;8.13;5.38;;;;;;;13.93;58.27;99046.41;5073597;28;20402;-47
2024/02/15 04:17:55;;;;;;;9.95;5.85;;;;;;;13.85;58.86;99044.00;5072032;28;20100;-47
2024/02/15 04:20:22;;;;;;;10.20;5.55;;;;;;;13.74;59.28;99037.56;5073491;28;20111;-47
2024/02/15 04:22:50;;;;;;;8.30;5.78;;;;;;;13.74;59.18;99030.47;5072223;28;20039;-47
2024/02/15 04:25:22;;;;;;;8.90;6.05;;;;;;;13.78;58.65;99029.03;5072096;28;20020;-47
2024/02/15 04:27:49;;;;;;;10.82;5.60;;;;;;;13.78;58.27;99038.75;5073413;28;20020;-47
2024/02/15 04:30:15;;;;;;;7.20;4.70;;;;;;;13.86;58.34;99037.69;5073349;28;20028;-47
2024/02/15 04:32:41;;;;;;;7.78;4.22;;;;;;;13.80;57.60;99023.53;5055494;28;20028;-47
2024/02/15 04:35:07;;;;;;;10.85;6.07;;;;;;;13.76;57.22;99024.97;5071878;28;20028;-47
2024/02/15 04:37:34;;;;;;;9.40;5.25;;;;;;;13.73;57.22;99028.03;5071888;28;20025;-47
2024/02/15 04:40:07;;;;;;;10.65;6.68;;;;;;;13.69;57.18;99032.13;5072990;28;20082;-47
2024/02/15 04:42:34;;;;;;;8.50;5.55;;;;;;;13.73;56.77;99020.13;5073165;28;20033;-47
2024/02/15 04:45:00;;;;;;;7.45;4.47;;;;;;;13.76;55.92;99017.06;5073039;28;20027;-47
2024/02/15 04:47:26;;;;;;;11.80;4.38;;;;;;;13.83;56.67;99011.75;5071827;28;20502;-47
2024/02/15 04:49:52;;;;;;;7.20;4.50;;;;;;;13.80;56.12;99005.06;5071620;28;20070;-47
2024/02/15 04:52:18;;;;;;;9.35;4.18;;;;;;;13.69;56.18;99003.91;5071547;28;20054;-47
2024/02/15 04:54:44;;;;;;;6.72;4.22;;;;;;;13.42;56.20;99003.28;5073141;28;20013;-47
2024/02/15 04:57:11;;;;;;;8.63;4.65;;;;;;;13.35;55.97;99005.91;5071387;28;20039;-47
2024/02/15 04:59:37;;;;;;;9.05;4.80;;;;;;;13.22;56.35;99016.50;5072606;28;20150;-47
2024/02/15 05:02:03;;;;;;;6.13;3.95;;;;;;;13.26;56.13;99014.25;5071488;28;20051;-47
2024/02/15 05:04:29;;;;;;;8.18;4.38;;;;;;;13.19;55.42;99001.09;5071332;28;20032;-47
2024/02/15 05:06:56;;;;;;;7.30;4.20;;;;;;;13.12;55.76;99003.78;5071336;28;20020;-46
2024/02/15 05:09:22;;;;;;;8.13;4.10;;;;;;;13.11;55.20;99002.16;5071242;28;20112;-46
2024/02/15 05:11:48;;;;;;;8.57;5.97;;;;;;;13.08;54.99;98999.13;5071138;28;20021;-47
2024/02/15 05:14:19;;;;;;;10.02;4.32;;;;;;;12.99;55.42;99003.81;5072147;28;20028;-47
2024/02/15 05:16:47;;;;;;;8.50;4.25;;;;;;;13.02;56.84;98999.94;5072264;28;20028;-47
2024/02/15 05:19:17;;;;;;;10.15;4.40;;;;;;;12.95;55.45;98997.34;5071845;28;20040;-47
2024/02/15 05:21:47;;;;;;;10.93;4.40;;;;;;;12.89;55.95;99001.63;5071376;28;20029;-47
2024/02/15 05:24:17;;;;;;;9.27;4.55;;;;;;;12.90;55.29;99005.88;5072255;28;20506;-47
2024/02/15 05:26:46;;;;;;;7.13;5.03;;;;;;;13.04;55.51;99000.53;5070989;28;20055;-47
2024/02/15 05:29:12;;;;;;;7.40;4.35;;;;;;;13.13;56.37;98999.31;5072187;28;20017;-47
2024/02/15 05:31:39;;;;;;;12.93;4.95;;;;;;;13.16;54.85;98998.91;5072095;28;20102;-47
2024/02/15 05:34:11;;;;;;;10.90;3.83;;;;;;;13.24;53.67;99001.31;5070804;28;20021;-47
2024/02/15 05:36:37;;;;;;;10.00;4.50;;;;;;;13.42;53.09;99000.63;5072149;28;20035;-46
2024/02/15 05:39:04;;;;;;;7.05;4.90;;;;;;;13.37;54.07;98988.06;5070683;28;20111;-47
2024/02/15 05:41:34;;;;;;;11.48;5.30;;;;;;;13.39;55.10;98993.94;5070724;28;20032;-47
2024/02/15 05:44:00;;;;;;;8.98;5.07;;;;;;;13.40;55.02;98989.50;5071924;28;20021;-47
2024/02/15 05:46:27;;;;;;;11.20;5.57;;;;;;;13.45;54.00;98994.13;5070621;28;20039;-47
2024/02/15 05:48:53;;;;;;;9.38;4.10;;;;;;;13.44;54.40;99003.03;5070664;28;20021;-47
2024/02/15 05:51:19;;;;;;;7.78;4.32;;;;;;;13.43;53.18;98998.81;5072174;28;20174;-47
2024/02/15 05:53:45;;;;;;;6.50;4.30;;;;;;;13.33;53.69;99005.31;5070669;28;20035;-47
2024/02/15 05:56:12;;;;;;;6.20;4.13;;;;;;;13.44;55.24;99006.50;5070804;28;20036;-47
2024/02/15 05:58:39;;;;;;;8.43;7.55;;;;;;;13.46;54.80;99007.09;5071884;28;20094;-47
2024/02/15 06:01:06;;;;;;;7.45;4.57;;;;;;;13.52;52.84;98995.72;5071947;28;20040;-47
2024/02/15 06:03:33;;;;;;;8.52;4.45;;;;;;;13.54;53.59;98987.56;5071707;28;20028;-47
2024/02/15 06:06:01;;;;;;;10.10;4.75;;;;;;;13.41;53.44;98987.66;5071777;28;20103;-47
2024/02/15 06:08:30;;;;;;;8.35;4.35;;;;;;;13.15;53.30;98995.44;5070472;28;20132;-47
2024/02/15 06:10:56;;;;;;;8.23;3.88;;;;;;;13.18;52.70;98995.03;5070429;28;20410;-49
2024/02/15 06:13:23;;;;;;;13.05;6.15;;;;;;;13.13;54.55;98991.41;5071770;28;20025;-48
2024/02/15 06:15:52;;;;;;;241.48;219.98;;;;;;;13.21;52.89;98980.63;5071639;28;20052;-48
2024/02/15 06:18:24;;;;;;;19.30;17.50;;;;;;;13.29;52.74;98974.31;5071479;28;20033;-49
2024/02/15 06:20:50;;;;;;;11.80;6.88;;;;;;;13.26;52.45;98972.06;5070417;28;20063;-48
2024/02/15 06:23:20;;;;;;;12.80;4.93;;;;;;;13.14;52.76;98987.75;5070307;28;20513;-49
2024/02/15 06:25:50;;;;;;;10.73;4.57;;;;;;;13.06;52.61;98987.97;5071643;28;20103;-49
2024/02/15 06:39:37;;;;;;;7.43;3.67;;;;;;;13.16;53.92;98983.09;5074658;28;20031;-49
2024/02/15 06:39:46;;;;;;;8.10;3.17;;;;;;;13.72;50.82;98998.22;5075646;28;20113;-49
2024/02/15 06:42:19;;;;;;;10.63;3.92;;;;;;;13.63;50.48;98998.69;5075453;28;20397;-49
2024/02/15 06:44:46;;;;;;;11.38;3.40;;;;;;;13.42;50.48;98998.00;5075687;28;20410;-48
2024/02/15 06:47:12;;;;;;;6.43;3.47;;;;;;;13.29;51.37;99008.56;5074248;28;20032;-49
2024/02/15 06:49:43;;;;;;;6.10;2.88;;;;;;;13.25;51.62;99002.91;5075291;28;20067;-49
2024/02/15 06:52:11;;;;;;;7.65;3.05;;;;;;;13.30;52.13;99005.75;5075167;28;20029;-49
2024/02/15 06:54:40;;;;;;;5.50;3.25;;;;;;;13.46;52.19;99004.47;5073851;28;20021;-48
2024/02/15 06:57:07;;;;;;;7.28;2.83;;;;;;;13.53;51.09;98997.31;5073781;28;20044;-48
2024/02/15 06:59:33;;;;;;;10.35;2.97;;;;;;;13.57;51.04;99000.34;5073711;28;20074;-49
2024/02/15 07:02:01;;;;;;;6.32;2.67;;;;;;;13.70;50.95;99002.91;5073722;28;20111;-48
2024/02/15 07:04:27;;;;;;;8.65;3.05;;;;;;;13.69;50.60;99011.84;5074941;28;20021;-48
2024/02/15 07:06:54;;;;;;;7.43;3.30;;;;;;;13.73;50.31;98999.84;5074881;28;20395;-49
2024/02/15 07:09:22;;;;;;;6.18;2.72;;;;;;;13.69;49.63;99006.56;5074924;28;20020;-48
2024/02/15 07:11:48;;;;;;;6.38;2.85;;;;;;;13.96;49.25;98998.47;5073511;28;20074;-49
2024/02/15 07:14:15;;;;;;;8.55;3.20;;;;;;;14.17;48.72;98995.44;5074753;28;20028;-49
2024/02/15 07:16:47;;;;;;;7.18;2.58;;;;;;;14.31;48.24;98998.00;5074947;28;20035;-48
2024/02/15 07:19:13;;;;;;;5.70;2.70;;;;;;;14.57;47.88;98994.31;5073089;28;20047;-48
2024/02/15 07:21:40;;;;;;;6.45;2.90;;;;;;;14.71;47.07;98992.34;5074553;28;20543;-49
2024/02/15 07:24:06;;;;;;;14.35;8.20;;;;;;;14.73;46.94;98998.22;5074615;28;20032;-48
2024/02/15 07:26:34;;;;;;;22.42;16.80;;;;;;;14.87;47.40;98994.41;5073219;28;20119;-49
2024/02/15 07:29:00;;;;;;;5.43;3.20;;;;;;;15.16;47.25;98997.31;5073532;28;20438;-49
2024/02/15 07:31:29;;;;;;;4.35;3.10;;;;;;;15.36;46.70;98987.28;5074406;28;20028;-49
2024/02/15 07:33:55;;;;;;;4.88;2.50;;;;;;;15.50;46.21;98989.78;5073062;28;20098;-49
2024/02/15 07:36:24;;;;;;;6.90;3.28;;;;;;;15.72;46.26;98998.84;5073084;28;20502;-49
2024/02/15 07:38:51;;;;;;;6.35;3.50;;;;;;;16.00;45.52;98996.59;5072551;28;20086;-49
2024/02/15 07:41:22;;;;;;;6.97;2.50;;;;;;;16.18;44.76;98988.56;5074471;28;20393;-49
2024/02/15 07:43:54;;;;;;;9.63;3.42;;;;;;;16.44;44.27;98992.59;5074324;28;20097;-49
2024/02/15 07:46:21;;;;;;;9.30;3.00;;;;;;;16.87;43.59;98994.09;5074263;28;20033;-49
2024/02/15 07:48:50;;;;;;;8.02;3.17;;;;;;;17.11;42.90;98986.88;5074165;28;20024;-49
2024/02/15 07:51:20;;;;;;;7.68;3.40;;;;;;;17.14;42.24;98996.19;5072815;28;20032;-49
2024/02/15 07:53:46;;;;;;;8.23;3.28;;;;;;;17.10;42.72;98989.75;5072820;28;20024;-49
2024/02/15 07:56:13;;;;;;;6.53;2.97;;;;;;;16.94;42.36;98989.47;5073970;28;20028;-49
2024/02/15 07:58:46;;;;;;;5.78;2.78;;;;;;;17.04;42.07;98996.00;5072847;28;20498;-49
2024/02/15 08:01:16;;;;;;;8.95;3.50;;;;;;;17.18;42.18;98989.38;5073801;28;20021;-46
2024/02/15 08:03:45;;;;;;;8.75;2.88;;;;;;;17.46;41.51;98993.88;5073940;28;20132;-46
2024/02/15 08:06:12;;;;;;;7.80;3.10;;;;;;;17.90;42.22;98991.50;5072588;28;20514;-46
2024/02/15 08:08:44;;;;;;;11.10;3.67;;;;;;;18.52;40.54;98984.47;5073776;28;20024;-46
2024/02/15 08:11:16;;;;;;;7.60;3.20;;;;;;;19.11;39.32;98975.91;5072836;28;20042;-46
2024/02/15 08:13:50;;;;;;;7.55;3.22;;;;;;;19.52;37.70;98973.69;5072504;28;20090;-46
2024/02/15 08:16:24;;;;;;;9.55;2.90;;;;;;;19.80;37.67;98969.16;5073863;28;20443;-46
2024/02/15 08:18:57;;;;;;;14.80;3.30;;;;;;;20.18;36.65;98962.00;5073399;28;20045;-46
2024/02/15 08:21:32;;;;;;;8.88;3.22;;;;;;;20.42;36.44;98957.09;5072534;28;20056;-46
2024/02/15 08:24:05;;;;;;;10.77;4.43;;;;;;;20.55;35.63;98964.63;5073517;28;20035;-46
2024/02/15 08:26:43;;;;;;;14.73;4.07;;;;;;;20.62;36.11;98973.22;5073425;28;20042;-46
2024/02/15 08:29:09;;;;;;;4.72;2.85;;;;;;;20.62;35.31;98964.41;5072183;28;20510;-46
2024/02/15 08:31:36;;;;;;;6.18;3.03;;;;;;;20.42;35.99;98968.53;5073380;28;20429;-46
2024/02/15 08:34:05;;;;;;;6.45;2.72;;;;;;;20.70;35.39;98963.94;5073231;28;20074;-46
2024/02/15 08:36:32;;;;;;;6.18;3.22;;;;;;;20.82;34.81;98958.38;5073204;28;20494;-46
2024/02/15 08:38:57;;;;;;;6.90;3.38;;;;;;;20.96;34.84;98943.47;5071863;28;20033;-46
2024/02/15 08:41:26;;;;;;;10.90;3.58;;;;;;;21.28;34.64;98945.19;5071831;28;20099;-46
2024/02/15 08:43:53;;;;;;;6.40;3.78;;;;;;;21.96;34.20;98941.53;5073127;28;20099;-46
2024/02/15 08:46:19;;;;;;;5.90;3.20;;;;;;;22.46;32.71;98935.28;5071749;28;20506;-46
2024/02/15 08:48:46;;;;;;;8.07;3.78;;;;;;;22.70;32.90;98935.47;5073142;28;20402;-46
2024/02/15 08:51:12;;;;;;;6.57;3.10;;;;;;;22.77;31.79;98931.72;5072128;28;20020;-47
2024/02/15 08:53:38;;;;;;;6.43;3.40;;;;;;;22.17;32.66;98907.53;5072829;28;20039;-46
2024/02/15 08:56:05;;;;;;;6.47;3.53;;;;;;;21.59;33.87;98911.34;5072838;28;20024;-46
2024/02/15 08:58:31;;;;;;;11.75;3.90;;;;;;;21.42;34.42;98902.75;5071473;28;20471;-46
2024/02/15 09:00:58;;;;;;;6.63;3.40;;;;;;;21.76;34.38;98897.69;5072628;28;20099;-46
2024/02/15 09:03:23;;;;;;;9.43;3.65;;;;;;;22.08;33.44;98884.03;5072646;28;20016;-46
2024/02/15 09:05:49;;;;;;;8.30;4.00;;;;;;;22.02;33.51;98887.78;5072630;28;20017;-46
2024/02/15 09:08:15;;;;;;;5.68;3.30;;;;;;;21.58;33.91;98885.69;5072644;28;20021;-46
2024/02/15 09:10:42;;;;;;;4.05;3.20;;;;;;;21.06;34.78;98886.69;5071529;28;20028;-46
2024/02/15 09:13:08;;;;;;;10.48;3.63;;;;;;;20.42;35.52;98882.44;5072454;28;20048;-46
2024/02/15 09:15:35;;;;;;;10.02;3.15;;;;;;;19.96;36.50;98880.34;5072412;28;20418;-46
2024/02/15 09:18:01;;;;;;;5.03;3.50;;;;;;;19.72;37.11;98869.25;5072150;28;20401;-48
2024/02/15 09:20:28;;;;;;;8.95;4.13;;;;;;;19.67;38.08;98867.31;5072377;28;20036;-46
2024/02/15 09:22:54;;;;;;;6.55;3.67;;;;;;;19.83;37.84;98876.25;5072219;28;20107;-46
2024/02/15 09:25:24;;;;;;;9.02;3.63;;;;;;;19.95;37.22;98878.72;5072615;28;20211;-47
2024/02/15 09:27:53;;;;;;;9.15;3.53;;;;;;;19.74;38.02;98877.81;5072272;28;20237;-46
2024/02/15 09:30:19;;;;;;;10.73;4.35;;;;;;;19.69;38.28;98881.19;5070897;28;20040;-46
2024/02/15 09:32:45;;;;;;;8.98;5.07;;;;;;;19.52;38.63;98862.69;5072154;28;20020;-46
2024/02/15 09:35:13;;;;;;;10.60;4.70;;;;;;;19.39;39.06;98859.66;5071051;28;20028;-46
2024/02/15 09:37:46;;;;;;;8.88;3.70;;;;;;;19.22;42.19;98849.13;5072116;28;20050;-46
2024/02/15 09:40:16;;;;;;;9.43;4.75;;;;;;;18.92;41.87;98856.56;5070717;28;20028;-46
2024/02/15 09:42:44;;;;;;;9.35;4.45;;;;;;;18.50;41.76;98865.09;5072026;28;20024;-46
2024/02/15 09:45:12;;;;;;;6.28;3.47;;;;;;;18.32;43.66;98862.75;5071894;28;20551;-46
2024/02/15 09:47:42;;;;;;;7.45;2.70;;;;;;;18.26;42.29;98869.06;5072246;28;20498;-46
2024/02/15 09:50:13;;;;;;;7.25;3.47;;;;;;;18.32;42.31;98870.72;5070878;28;20501;-46
2024/02/15 09:52:40;;;;;;;18.00;6.88;;;;;;;18.37;41.92;98868.13;5071989;28;20032;-46
2024/02/15 09:55:13;;;;;;;32.15;12.50;;;;;;;18.73;42.16;98863.22;5070809;28;20497;-46
2024/02/15 09:57:43;;;;;;;18.35;7.82;;;;;;;19.11;41.48;98857.00;5070695;28;20028;-46
2024/02/15 10:00:13;;;;;;;10.20;4.45;;;;;;;19.42;40.43;98843.97;5071758;28;20573;-46
2024/02/15 10:02:52;;;;;;;9.32;3.40;;;;;;;19.60;38.95;98842.78;5071875;28;20490;-46
2024/02/15 10:05:20;;;;;;;15.43;6.55;;;;;;;19.65;39.57;98848.13;5071795;28;20027;-46
2024/02/15 10:07:46;;;;;;;7.00;3.33;;;;;;;19.96;38.68;98853.72;5072002;28;20437;-46
2024/02/15 10:10:25;;;;;;;9.48;3.75;;;;;;;20.25;42.95;98863.97;5071642;28;20021;-46
2024/02/15 10:12:54;;;;;;;9.20;4.05;;;;;;;19.68;44.11;98860.13;5070517;28;20047;-46
2024/02/15 10:15:38;;;;;;;9.00;3.53;;;;;;;20.53;41.25;98858.22;5071696;28;20075;-46
2024/02/15 10:18:10;;;;;;;11.27;4.07;;;;;;;21.07;38.25;98848.28;5071406;28;20497;-46
2024/02/15 10:20:38;;;;;;;9.80;3.97;;;;;;;21.02;38.61;98850.91;5071611;28;20028;-46
2024/02/15 10:23:17;;;;;;;6.28;3.30;;;;;;;20.79;37.67;98855.69;5070345;28;20608;-46
2024/02/15 10:25:44;;;;;;;6.00;3.13;;;;;;;21.19;36.51;98861.34;5071587;28;20142;-46
2024/02/15 10:28:19;;;;;;;11.57;7.93;;;;;;;21.49;36.26;98855.22;5071599;28;20111;-47
2024/02/15 10:30:48;;;;;;;10.82;7.18;;;;;;;22.28;35.69;98853.00;5071553;28;20029;-46
2024/02/15 10:33:20;;;;;;;8.18;4.97;;;;;;;23.42;33.10;98843.22;5071529;28;20025;-46
2024/02/15 10:35:46;;;;;;;9.55;5.15;;;;;;;24.00;31.87;98837.09;5071680;28;20028;-47
2024/02/15 10:38:13;;;;;;;6.80;3.13;;;;;;;24.48;30.85;98859.31;5070215;28;20547;-46
2024/02/15 10:40:43;;;;;;;5.90;3.08;;;;;;;24.90;29.90;98844.28;5070158;28;20020;-46
2024/02/15 10:43:13;;;;;;;7.05;4.05;;;;;;;25.14;29.73;98842.63;5071442;28;20082;-47
2024/02/15 10:45:40;;;;;;;6.00;2.67;;;;;;;24.67;29.76;98853.19;5070085;28;20050;-47
2024/02/15 10:48:13;;;;;;;6.93;2.80;;;;;;;23.77;30.25;98830.59;5070096;28;20513;-47
2024/02/15 10:50:46;;;;;;;6.15;2.38;;;;;;;22.92;31.68;98844.13;5070043;28;20036;-47
2024/02/15 10:53:31;;;;;;;12.48;6.03;;;;;;;22.40;32.99;98832.09;5070050;28;20032;-46
2024/02/15 10:56:06;;;;;;;12.00;6.50;;;;;;;22.23;33.57;98829.69;5071303;28;20486;-47
2024/02/15 10:58:37;;;;;;;5.60;3.50;;;;;;;22.03;33.89;98843.94;5071269;28;20562;-46
2024/02/15 11:01:08;;;;;;;5.70;2.30;;;;;;;21.61;33.87;98842.44;5071244;28;20024;-45
2024/02/15 11:03:49;;;;;;;6.13;2.50;;;;;;;21.26;34.71;98846.66;5071565;28;20406;-45
2024/02/15 11:06:16;;;;;;;8.63;3.05;;;;;;;21.03;35.23;98844.53;5071217;28;20025;-45
2024/02/15 11:08:44;;;;;;;5.50;2.60;;;;;;;20.73;35.43;98840.72;5071149;28;20033;-45
2024/02/15 11:11:14;;;;;;;4.63;2.70;;;;;;;20.46;35.81;98835.53;5071202;28;20043;-45
2024/02/15 11:13:42;;;;;;;10.38;3.78;;;;;;;20.31;37.05;98829.09;5073062;28;20017;-45
2024/02/15 11:16:09;;;;;;;11.40;3.40;;;;;;;20.23;37.27;98839.44;5074807;28;20041;-45
2024/02/15 11:18:48;;;;;;;7.78;3.25;;;;;;;19.89;37.84;98842.47;5073467;28;20112;-45
2024/02/15 11:21:37;;;;;;;10.13;3.83;;;;;;;19.69;38.04;98822.59;5074610;28;20032;-47
2024/02/15 11:24:36;;;;;;;7.32;2.70;;;;;;;19.66;38.53;98828.44;5074464;28;20402;-47
2024/02/15 11:27:03;;;;;;;6.20;2.15;;;;;;;19.72;38.52;98818.66;5074490;28;20060;-46
2024/02/15 11:30:12;;;;;;;6.10;2.30;;;;;;;19.77;38.68;98808.03;5073235;28;20025;-46
2024/02/15 11:32:50;;;;;;;12.23;5.35;;;;;;;20.06;38.89;98800.47;5074503;28;20025;-47
2024/02/15 11:35:29;;;;;;;15.38;6.10;;;;;;;20.39;37.90;98801.13;5074456;28;20518;-45
2024/02/15 11:38:03;;;;;;;5.53;2.83;;;;;;;20.62;37.83;98791.09;5074460;28;20035;-45
2024/02/15 11:40:52;;;;;;;13.60;4.63;;;;;;;21.08;37.78;98783.13;5073103;28;20107;-45
2024/02/15 11:43:46;;;;;;;9.98;6.80;;;;;;;21.25;36.65;98790.88;5074274;28;20082;-45
2024/02/15 11:46:19;;;;;;;5.18;4.28;;;;;;;21.30;37.06;98781.00;5074197;28;20029;-46